sensor_id;sensor_type;location;lat;lon;timestamp;pressure;altitude;pressure_sealevel;temperature;humidity
50710;BME280;37033;49.994;21.992;2023-05-21T00:01:22;99878.17;;;13.02;80.05
50710;BME280;37033;49.994;21.992;2023-05-21T00:03:53;99881.02;;;12.99;79.98
50710;BME280;37033;49.994;21.992;2023-05-21T00:06:24;99879.20;;;12.96;79.92
50710;BME280;37033;49.994;21.992;2023-05-21T00:08:55;99879.98;;;12.93;79.92
50710;BME280;37033;49.994;21.992;2023-05-21T00:11:26;99878.11;;;12.90;79.77
50710;BME280;37033;49.994;21.992;2023-05-21T00:13:57;99875.36;;;12.86;79.78
50710;BME280;37033;49.994;21.992;2023-05-21T00:16:28;99875.68;;;12.81;79.92
50710;BME280;37033;49.994;21.992;2023-05-21T00:18:58;99873.41;;;12.77;79.90
50710;BME280;37033;49.994;21.992;2023-05-21T00:21:30;99873.24;;;12.71;79.76
50710;BME280;37033;49.994;21.992;2023-05-21T00:24:01;99871.66;;;12.66;79.72
50710;BME280;37033;49.994;21.992;2023-05-21T00:26:32;99870.13;;;12.60;79.75
50710;BME280;37033;49.994;21.992;2023-05-21T00:29:02;99872.92;;;12.55;79.72
50710;BME280;37033;49.994;21.992;2023-05-21T00:31:33;99872.42;;;12.52;79.82
50710;BME280;37033;49.994;21.992;2023-05-21T00:34:04;99876.55;;;12.46;79.74
50710;BME280;37033;49.994;21.992;2023-05-21T00:36:35;99876.70;;;12.41;79.75
50710;BME280;37033;49.994;21.992;2023-05-21T00:39:06;99877.63;;;12.37;79.67
50710;BME280;37033;49.994;21.992;2023-05-21T00:41:37;99878.66;;;12.31;79.84
50710;BME280;37033;49.994;21.992;2023-05-21T00:44:08;99879.10;;;12.26;79.81
50710;BME280;37033;49.994;21.992;2023-05-21T00:46:42;99875.71;;;12.20;79.66
50710;BME280;37033;49.994;21.992;2023-05-21T00:49:13;99872.00;;;12.15;79.70
50710;BME280;37033;49.994;21.992;2023-05-21T00:51:44;99873.50;;;12.11;79.81
50710;BME280;37033;49.994;21.992;2023-05-21T00:54:16;99872.46;;;12.06;79.91
50710;BME280;37033;49.994;21.992;2023-05-21T00:56:47;99873.20;;;12.02;79.86
50710;BME280;37033;49.994;21.992;2023-05-21T00:59:18;99872.11;;;11.98;79.94
50710;BME280;37033;49.994;21.992;2023-05-21T01:01:49;99873.59;;;11.93;79.87
50710;BME280;37033;49.994;21.992;2023-05-21T01:04:24;99878.16;;;11.86;79.96
50710;BME280;37033;49.994;21.992;2023-05-21T01:06:55;99874.63;;;11.77;80.02
50710;BME280;37033;49.994;21.992;2023-05-21T01:09:27;99877.06;;;11.68;79.98
50710;BME280;37033;49.994;21.992;2023-05-21T01:11:58;99871.26;;;11.61;80.26
50710;BME280;37033;49.994;21.992;2023-05-21T01:14:29;99871.94;;;11.57;80.51
50710;BME280;37033;49.994;21.992;2023-05-21T01:17:01;99868.70;;;11.54;80.53
50710;BME280;37033;49.994;21.992;2023-05-21T01:19:33;99866.42;;;11.48;80.34
50710;BME280;37033;49.994;21.992;2023-05-21T01:22:06;99863.02;;;11.44;80.54
50710;BME280;37033;49.994;21.992;2023-05-21T01:24:37;99855.90;;;11.38;80.37
50710;BME280;37033;49.994;21.992;2023-05-21T01:27:07;99860.92;;;11.32;80.61
50710;BME280;37033;49.994;21.992;2023-05-21T01:29:38;99856.48;;;11.26;80.66
50710;BME280;37033;49.994;21.992;2023-05-21T01:32:14;99853.72;;;11.22;80.90
50710;BME280;37033;49.994;21.992;2023-05-21T01:34:49;99852.67;;;11.12;81.05
50710;BME280;37033;49.994;21.992;2023-05-21T01:37:31;99853.46;;;10.99;81.01
50710;BME280;37033;49.994;21.992;2023-05-21T01:40:10;99852.23;;;10.91;81.22
50710;BME280;37033;49.994;21.992;2023-05-21T01:42:44;99850.88;;;10.89;81.49
50710;BME280;37033;49.994;21.992;2023-05-21T01:45:16;99844.35;;;10.84;81.53
50710;BME280;37033;49.994;21.992;2023-05-21T01:47:49;99846.88;;;10.80;81.59
50710;BME280;37033;49.994;21.992;2023-05-21T01:50:22;99848.73;;;10.76;81.61
50710;BME280;37033;49.994;21.992;2023-05-21T01:52:55;99846.45;;;10.72;81.72
50710;BME280;37033;49.994;21.992;2023-05-21T01:55:27;99849.00;;;10.70;81.74
50710;BME280;37033;49.994;21.992;2023-05-21T01:57:59;99848.09;;;10.68;81.63
50710;BME280;37033;49.994;21.992;2023-05-21T02:00:30;99851.48;;;10.67;81.80
50710;BME280;37033;49.994;21.992;2023-05-21T02:03:01;99855.73;;;10.65;81.73
50710;BME280;37033;49.994;21.992;2023-05-21T02:05:31;99852.42;;;10.63;81.85
50710;BME280;37033;49.994;21.992;2023-05-21T02:08:02;99854.36;;;10.61;81.69
50710;BME280;37033;49.994;21.992;2023-05-21T02:10:33;99853.09;;;10.60;81.88
50710;BME280;37033;49.994;21.992;2023-05-21T02:13:04;99845.55;;;10.59;81.86
50710;BME280;37033;49.994;21.992;2023-05-21T02:15:35;99844.20;;;10.57;81.96
50710;BME280;37033;49.994;21.992;2023-05-21T02:18:07;99841.80;;;10.55;82.01
50710;BME280;37033;49.994;21.992;2023-05-21T02:20:37;99840.07;;;10.53;82.05
50710;BME280;37033;49.994;21.992;2023-05-21T02:23:08;99835.89;;;10.49;82.01
50710;BME280;37033;49.994;21.992;2023-05-21T02:25:39;99836.89;;;10.43;82.21
50710;BME280;37033;49.994;21.992;2023-05-21T02:28:10;99839.16;;;10.39;82.17
50710;BME280;37033;49.994;21.992;2023-05-21T02:30:41;99837.30;;;10.37;82.23
50710;BME280;37033;49.994;21.992;2023-05-21T02:33:13;99837.95;;;10.36;82.29
50710;BME280;37033;49.994;21.992;2023-05-21T02:35:44;99831.54;;;10.37;82.41
50710;BME280;37033;49.994;21.992;2023-05-21T02:38:14;99828.15;;;10.37;82.39
50710;BME280;37033;49.994;21.992;2023-05-21T02:40:47;99826.38;;;10.35;82.43
50710;BME280;37033;49.994;21.992;2023-05-21T02:43:18;99822.13;;;10.34;82.46
50710;BME280;37033;49.994;21.992;2023-05-21T02:45:48;99820.26;;;10.34;82.53
50710;BME280;37033;49.994;21.992;2023-05-21T02:48:19;99817.35;;;10.32;82.52
50710;BME280;37033;49.994;21.992;2023-05-21T02:50:50;99817.64;;;10.31;82.52
50710;BME280;37033;49.994;21.992;2023-05-21T02:53:21;99818.35;;;10.29;82.55
50710;BME280;37033;49.994;21.992;2023-05-21T02:55:52;99812.72;;;10.28;82.54
50710;BME280;37033;49.994;21.992;2023-05-21T02:58:23;99817.74;;;10.27;82.68
50710;BME280;37033;49.994;21.992;2023-05-21T03:00:53;99818.42;;;10.24;82.87
50710;BME280;37033;49.994;21.992;2023-05-21T03:03:24;99820.27;;;10.20;82.89
50710;BME280;37033;49.994;21.992;2023-05-21T03:05:54;99823.38;;;10.19;83.08
50710;BME280;37033;49.994;21.992;2023-05-21T03:08:26;99825.77;;;10.17;82.92
50710;BME280;37033;49.994;21.992;2023-05-21T03:10:57;99824.16;;;10.14;82.90
50710;BME280;37033;49.994;21.992;2023-05-21T03:13:28;99826.64;;;10.11;82.98
50710;BME280;37033;49.994;21.992;2023-05-21T03:15:58;99822.21;;;10.11;83.04
50710;BME280;37033;49.994;21.992;2023-05-21T03:18:29;99817.01;;;10.10;83.20
50710;BME280;37033;49.994;21.992;2023-05-21T03:21:00;99812.68;;;10.10;83.13
50710;BME280;37033;49.994;21.992;2023-05-21T03:23:30;99806.86;;;10.09;83.08
50710;BME280;37033;49.994;21.992;2023-05-21T03:26:01;99808.55;;;10.09;83.27
50710;BME280;37033;49.994;21.992;2023-05-21T03:28:33;99806.59;;;10.11;83.24
50710;BME280;37033;49.994;21.992;2023-05-21T03:31:04;99807.61;;;10.13;83.39
50710;BME280;37033;49.994;21.992;2023-05-21T03:33:35;99806.97;;;10.13;83.38
50710;BME280;37033;49.994;21.992;2023-05-21T03:36:06;99807.21;;;10.14;83.59
50710;BME280;37033;49.994;21.992;2023-05-21T03:38:37;99810.95;;;10.16;83.83
50710;BME280;37033;49.994;21.992;2023-05-21T03:41:08;99807.80;;;10.18;83.70
50710;BME280;37033;49.994;21.992;2023-05-21T03:43:39;99811.59;;;10.18;83.95
50710;BME280;37033;49.994;21.992;2023-05-21T03:46:10;99814.54;;;10.23;84.05
50710;BME280;37033;49.994;21.992;2023-05-21T03:48:41;99811.39;;;10.27;84.14
50710;BME280;37033;49.994;21.992;2023-05-21T03:51:11;99813.67;;;10.32;84.20
50710;BME280;37033;49.994;21.992;2023-05-21T03:53:42;99808.38;;;10.37;84.26
50710;BME280;37033;49.994;21.992;2023-05-21T03:56:13;99813.81;;;10.43;84.34
50710;BME280;37033;49.994;21.992;2023-05-21T03:58:43;99820.61;;;10.49;84.32
50710;BME280;37033;49.994;21.992;2023-05-21T04:01:15;99825.04;;;10.59;84.51
50710;BME280;37033;49.994;21.992;2023-05-21T04:03:47;99826.59;;;10.68;84.53
50710;BME280;37033;49.994;21.992;2023-05-21T04:06:18;99826.57;;;10.75;84.55
50710;BME280;37033;49.994;21.992;2023-05-21T04:08:49;99824.05;;;10.84;84.68
50710;BME280;37033;49.994;21.992;2023-05-21T04:11:20;99819.02;;;10.96;84.87
50710;BME280;37033;49.994;21.992;2023-05-21T04:13:51;99815.04;;;11.09;84.96
50710;BME280;37033;49.994;21.992;2023-05-21T04:16:21;99812.48;;;11.22;84.93
50710;BME280;37033;49.994;21.992;2023-05-21T04:18:52;99816.11;;;11.38;84.92
50710;BME280;37033;49.994;21.992;2023-05-21T04:21:24;99812.60;;;11.53;85.21
50710;BME280;37033;49.994;21.992;2023-05-21T04:23:55;99810.48;;;11.70;85.23
50710;BME280;37033;49.994;21.992;2023-05-21T04:26:26;99807.64;;;11.87;85.27
50710;BME280;37033;49.994;21.992;2023-05-21T04:28:57;99805.29;;;12.02;85.07
50710;BME280;37033;49.994;21.992;2023-05-21T04:31:31;99802.89;;;12.15;84.91
50710;BME280;37033;49.994;21.992;2023-05-21T04:34:01;99803.34;;;12.30;84.89
50710;BME280;37033;49.994;21.992;2023-05-21T04:36:32;99807.75;;;12.43;84.52
50710;BME280;37033;49.994;21.992;2023-05-21T04:39:03;99808.14;;;12.58;84.50
50710;BME280;37033;49.994;21.992;2023-05-21T04:41:34;99810.14;;;12.72;84.26
50710;BME280;37033;49.994;21.992;2023-05-21T04:44:07;99806.99;;;12.86;84.24
50710;BME280;37033;49.994;21.992;2023-05-21T04:46:38;99811.27;;;13.00;84.06
50710;BME280;37033;49.994;21.992;2023-05-21T04:49:09;99804.50;;;13.16;84.02
50710;BME280;37033;49.994;21.992;2023-05-21T04:51:40;99805.36;;;13.32;83.71
50710;BME280;37033;49.994;21.992;2023-05-21T04:54:11;99805.87;;;13.46;83.59
50710;BME280;37033;49.994;21.992;2023-05-21T04:56:41;99804.64;;;13.62;83.48
50710;BME280;37033;49.994;21.992;2023-05-21T04:59:12;99800.02;;;13.76;83.08
50710;BME280;37033;49.994;21.992;2023-05-21T05:01:44;99796.09;;;13.90;83.15
50710;BME280;37033;49.994;21.992;2023-05-21T05:04:14;99799.36;;;14.11;83.18
50710;BME280;37033;49.994;21.992;2023-05-21T05:06:45;99799.35;;;14.29;82.66
50710;BME280;37033;49.994;21.992;2023-05-21T05:09:16;99797.34;;;14.43;82.32
50710;BME280;37033;49.994;21.992;2023-05-21T05:11:47;99793.05;;;14.60;82.00
50710;BME280;37033;49.994;21.992;2023-05-21T05:14:17;99795.71;;;14.74;81.57
50710;BME280;37033;49.994;21.992;2023-05-21T05:16:48;99795.41;;;14.96;81.88
50710;BME280;37033;49.994;21.992;2023-05-21T05:19:19;99794.42;;;15.22;81.99
50710;BME280;37033;49.994;21.992;2023-05-21T05:21:49;99794.18;;;15.51;81.71
50710;BME280;37033;49.994;21.992;2023-05-21T05:24:20;99786.55;;;15.74;80.77
50710;BME280;37033;49.994;21.992;2023-05-21T05:26:51;99791.16;;;15.93;80.13
50710;BME280;37033;49.994;21.992;2023-05-21T05:29:21;99792.62;;;16.12;79.31
50710;BME280;37033;49.994;21.992;2023-05-21T05:31:52;99794.02;;;16.33;78.99
50710;BME280;37033;49.994;21.992;2023-05-21T05:34:23;99795.27;;;16.56;78.71
50710;BME280;37033;49.994;21.992;2023-05-21T05:36:53;99797.65;;;16.77;78.20
50710;BME280;37033;49.994;21.992;2023-05-21T05:39:25;99793.38;;;16.99;78.13
50710;BME280;37033;49.994;21.992;2023-05-21T05:41:56;99791.80;;;17.25;77.83
50710;BME280;37033;49.994;21.992;2023-05-21T05:44:26;99789.35;;;17.49;77.19
50710;BME280;37033;49.994;21.992;2023-05-21T05:46:57;99788.81;;;17.71;76.14
50710;BME280;37033;49.994;21.992;2023-05-21T05:49:28;99790.38;;;17.85;75.45
50710;BME280;37033;49.994;21.992;2023-05-21T05:51:58;99786.18;;;18.08;75.06
50710;BME280;37033;49.994;21.992;2023-05-21T05:54:29;99785.18;;;18.23;73.99
50710;BME280;37033;49.994;21.992;2023-05-21T05:57:00;99782.58;;;18.37;72.48
50710;BME280;37033;49.994;21.992;2023-05-21T05:59:31;99783.59;;;18.44;71.65
50710;BME280;37033;49.994;21.992;2023-05-21T06:02:02;99787.41;;;18.58;71.66
50710;BME280;37033;49.994;21.992;2023-05-21T06:04:33;99792.13;;;18.69;70.26
50710;BME280;37033;49.994;21.992;2023-05-21T06:07:03;99792.55;;;18.72;68.88
50710;BME280;37033;49.994;21.992;2023-05-21T06:09:34;99794.56;;;18.80;66.56
50710;BME280;37033;49.994;21.992;2023-05-21T06:12:07;99793.45;;;18.79;65.16
50710;BME280;37033;49.994;21.992;2023-05-21T06:14:38;99791.66;;;18.85;67.32
50710;BME280;37033;49.994;21.992;2023-05-21T06:17:09;99790.60;;;19.09;68.14
50710;BME280;37033;49.994;21.992;2023-05-21T06:19:39;99787.24;;;19.22;66.48
50710;BME280;37033;49.994;21.992;2023-05-21T06:22:10;99780.45;;;19.30;66.10
50710;BME280;37033;49.994;21.992;2023-05-21T06:24:41;99777.48;;;19.39;65.17
50710;BME280;37033;49.994;21.992;2023-05-21T06:27:11;99772.79;;;19.40;65.31
50710;BME280;37033;49.994;21.992;2023-05-21T06:29:45;99769.16;;;19.50;65.35
50710;BME280;37033;49.994;21.992;2023-05-21T06:32:15;99767.61;;;19.62;64.88
50710;BME280;37033;49.994;21.992;2023-05-21T06:34:46;99766.16;;;19.75;63.74
50710;BME280;37033;49.994;21.992;2023-05-21T06:37:19;99761.27;;;19.79;62.88
50710;BME280;37033;49.994;21.992;2023-05-21T06:39:50;99758.11;;;19.75;61.99
50710;BME280;37033;49.994;21.992;2023-05-21T06:42:21;99759.60;;;19.75;62.55
50710;BME280;37033;49.994;21.992;2023-05-21T06:44:52;99748.95;;;19.85;61.98
50710;BME280;37033;49.994;21.992;2023-05-21T06:47:22;99749.10;;;19.95;59.67
50710;BME280;37033;49.994;21.992;2023-05-21T06:49:53;99745.82;;;20.02;61.24
50710;BME280;37033;49.994;21.992;2023-05-21T06:52:24;99746.88;;;20.18;60.81
50710;BME280;37033;49.994;21.992;2023-05-21T06:54:55;99746.37;;;20.31;61.16
50710;BME280;37033;49.994;21.992;2023-05-21T06:57:25;99742.96;;;20.52;61.53
50710;BME280;37033;49.994;21.992;2023-05-21T06:59:56;99743.01;;;20.74;61.21
50710;BME280;37033;49.994;21.992;2023-05-21T07:02:27;99742.17;;;20.91;60.79
50710;BME280;37033;49.994;21.992;2023-05-21T07:04:58;99739.42;;;21.16;61.12
50710;BME280;37033;49.994;21.992;2023-05-21T07:07:28;99737.27;;;21.35;59.29
50710;BME280;37033;49.994;21.992;2023-05-21T07:09:59;99734.81;;;21.46;59.09
50710;BME280;37033;49.994;21.992;2023-05-21T07:12:30;99732.96;;;21.65;58.46
50710;BME280;37033;49.994;21.992;2023-05-21T07:15:00;99731.90;;;21.79;56.68
50710;BME280;37033;49.994;21.992;2023-05-21T07:17:31;99731.70;;;21.80;54.73
50710;BME280;37033;49.994;21.992;2023-05-21T07:20:02;99728.56;;;21.77;53.14
50710;BME280;37033;49.994;21.992;2023-05-21T07:22:35;99733.21;;;21.74;51.52
50710;BME280;37033;49.994;21.992;2023-05-21T07:25:08;99732.67;;;21.68;52.15
50710;BME280;37033;49.994;21.992;2023-05-21T07:27:38;99728.05;;;21.75;52.34
50710;BME280;37033;49.994;21.992;2023-05-21T07:30:11;99731.41;;;21.76;52.70
50710;BME280;37033;49.994;21.992;2023-05-21T07:32:41;99729.46;;;21.79;53.27
50710;BME280;37033;49.994;21.992;2023-05-21T07:35:12;99728.98;;;21.85;53.45
50710;BME280;37033;49.994;21.992;2023-05-21T07:37:43;99727.49;;;21.86;53.81
50710;BME280;37033;49.994;21.992;2023-05-21T07:40:15;99728.34;;;21.86;54.42
50710;BME280;37033;49.994;21.992;2023-05-21T07:42:45;99728.54;;;21.90;53.66
50710;BME280;37033;49.994;21.992;2023-05-21T07:45:16;99726.77;;;21.83;54.02
50710;BME280;37033;49.994;21.992;2023-05-21T07:47:47;99727.45;;;21.77;53.31
50710;BME280;37033;49.994;21.992;2023-05-21T07:50:17;99725.32;;;21.62;53.66
50710;BME280;37033;49.994;21.992;2023-05-21T07:52:48;99727.15;;;21.54;53.96
50710;BME280;37033;49.994;21.992;2023-05-21T07:55:19;99726.38;;;21.48;53.81
50710;BME280;37033;49.994;21.992;2023-05-21T07:57:50;99725.14;;;21.43;53.93
50710;BME280;37033;49.994;21.992;2023-05-21T08:00:23;99721.88;;;21.46;54.18
50710;BME280;37033;49.994;21.992;2023-05-21T08:02:54;99722.92;;;21.48;53.93
50710;BME280;37033;49.994;21.992;2023-05-21T08:05:26;99724.83;;;21.52;52.16
50710;BME280;37033;49.994;21.992;2023-05-21T08:07:57;99724.53;;;21.46;52.08
50710;BME280;37033;49.994;21.992;2023-05-21T08:10:28;99730.15;;;21.47;51.23
50710;BME280;37033;49.994;21.992;2023-05-21T08:12:59;99726.57;;;21.53;51.21
50710;BME280;37033;49.994;21.992;2023-05-21T08:15:29;99728.12;;;21.56;51.48
50710;BME280;37033;49.994;21.992;2023-05-21T08:18:00;99726.30;;;21.58;51.03
50710;BME280;37033;49.994;21.992;2023-05-21T08:20:31;99726.58;;;21.63;50.82
50710;BME280;37033;49.994;21.992;2023-05-21T08:23:02;99721.39;;;21.71;50.23
50710;BME280;37033;49.994;21.992;2023-05-21T08:25:33;99727.50;;;21.75;49.96
50710;BME280;37033;49.994;21.992;2023-05-21T08:28:04;99723.67;;;21.80;49.86
50710;BME280;37033;49.994;21.992;2023-05-21T08:30:34;99728.56;;;21.86;49.79
50710;BME280;37033;49.994;21.992;2023-05-21T08:33:05;99727.63;;;21.93;48.86
50710;BME280;37033;49.994;21.992;2023-05-21T08:35:36;99725.80;;;21.99;47.98
50710;BME280;37033;49.994;21.992;2023-05-21T08:38:07;99721.67;;;22.08;47.09
50710;BME280;37033;49.994;21.992;2023-05-21T08:40:37;99723.05;;;22.13;46.72
50710;BME280;37033;49.994;21.992;2023-05-21T08:43:09;99722.83;;;22.14;46.71
50710;BME280;37033;49.994;21.992;2023-05-21T08:45:43;99725.33;;;22.20;46.22
50710;BME280;37033;49.994;21.992;2023-05-21T08:48:15;99728.61;;;22.26;45.66
50710;BME280;37033;49.994;21.992;2023-05-21T08:50:47;99720.53;;;22.28;45.73
50710;BME280;37033;49.994;21.992;2023-05-21T08:53:18;99722.27;;;22.35;46.23
50710;BME280;37033;49.994;21.992;2023-05-21T08:55:49;99714.92;;;22.42;45.86
50710;BME280;37033;49.994;21.992;2023-05-21T08:58:22;99718.84;;;22.51;46.12
50710;BME280;37033;49.994;21.992;2023-05-21T09:00:54;99719.34;;;22.58;45.73
50710;BME280;37033;49.994;21.992;2023-05-21T09:03:26;99717.77;;;22.64;45.96
50710;BME280;37033;49.994;21.992;2023-05-21T09:05:57;99714.30;;;22.74;45.94
50710;BME280;37033;49.994;21.992;2023-05-21T09:08:31;99716.56;;;22.86;45.95
50710;BME280;37033;49.994;21.992;2023-05-21T09:11:04;99718.96;;;23.01;45.56
50710;BME280;37033;49.994;21.992;2023-05-21T09:13:36;99714.96;;;23.07;45.22
50710;BME280;37033;49.994;21.992;2023-05-21T09:16:09;99715.73;;;23.10;43.88
50710;BME280;37033;49.994;21.992;2023-05-21T09:18:40;99709.97;;;23.05;43.56
50710;BME280;37033;49.994;21.992;2023-05-21T09:21:24;99713.68;;;23.11;43.56
50710;BME280;37033;49.994;21.992;2023-05-21T09:23:57;99714.36;;;23.15;43.37
50710;BME280;37033;49.994;21.992;2023-05-21T09:26:28;99713.85;;;23.12;42.76
50710;BME280;37033;49.994;21.992;2023-05-21T09:29:00;99709.02;;;23.12;42.15
50710;BME280;37033;49.994;21.992;2023-05-21T09:31:30;99712.39;;;23.18;43.12
50710;BME280;37033;49.994;21.992;2023-05-21T09:34:02;99713.20;;;23.31;43.22
50710;BME280;37033;49.994;21.992;2023-05-21T09:36:32;99715.66;;;23.35;41.24
50710;BME280;37033;49.994;21.992;2023-05-21T09:39:06;99715.86;;;23.27;41.96
50710;BME280;37033;49.994;21.992;2023-05-21T09:41:42;99717.79;;;23.30;42.37
50710;BME280;37033;49.994;21.992;2023-05-21T09:44:13;99703.41;;;23.38;41.91
50710;BME280;37033;49.994;21.992;2023-05-21T09:46:43;99712.23;;;23.34;41.01
50710;BME280;37033;49.994;21.992;2023-05-21T09:49:24;99717.35;;;23.32;40.87
50710;BME280;37033;49.994;21.992;2023-05-21T09:51:58;99714.46;;;23.34;40.81
50710;BME280;37033;49.994;21.992;2023-05-21T09:54:33;99721.29;;;23.36;40.22
50710;BME280;37033;49.994;21.992;2023-05-21T09:57:04;99719.46;;;23.38;41.03
50710;BME280;37033;49.994;21.992;2023-05-21T09:59:38;99713.80;;;23.48;40.99
50710;BME280;37033;49.994;21.992;2023-05-21T10:02:21;99713.24;;;23.56;40.24
50710;BME280;37033;49.994;21.992;2023-05-21T10:04:52;99721.30;;;23.62;39.24
50710;BME280;37033;49.994;21.992;2023-05-21T10:07:24;99720.67;;;23.59;38.02
50710;BME280;37033;49.994;21.992;2023-05-21T10:09:56;99721.23;;;23.46;36.67
50710;BME280;37033;49.994;21.992;2023-05-21T10:12:29;99718.15;;;23.29;36.83
50710;BME280;37033;49.994;21.992;2023-05-21T10:15:02;99721.80;;;23.27;37.14
50710;BME280;37033;49.994;21.992;2023-05-21T10:17:33;99715.83;;;23.20;37.89
50710;BME280;37033;49.994;21.992;2023-05-21T10:20:06;99714.05;;;23.16;38.71
50710;BME280;37033;49.994;21.992;2023-05-21T10:22:39;99716.67;;;23.20;38.55
50710;BME280;37033;49.994;21.992;2023-05-21T10:25:11;99713.50;;;23.25;38.78
50710;BME280;37033;49.994;21.992;2023-05-21T10:27:42;99711.94;;;23.31;38.87
50710;BME280;37033;49.994;21.992;2023-05-21T10:30:14;99712.57;;;23.34;38.78
50710;BME280;37033;49.994;21.992;2023-05-21T10:32:48;99705.25;;;23.32;38.09
50710;BME280;37033;49.994;21.992;2023-05-21T10:35:19;99705.32;;;23.34;39.03
50710;BME280;37033;49.994;21.992;2023-05-21T10:37:50;99704.59;;;23.41;38.92
50710;BME280;37033;49.994;21.992;2023-05-21T10:40:21;99705.26;;;23.42;38.44
50710;BME280;37033;49.994;21.992;2023-05-21T10:43:20;99702.56;;;23.37;39.06
50710;BME280;37033;49.994;21.992;2023-05-21T10:46:21;99704.84;;;23.37;39.22
50710;BME280;37033;49.994;21.992;2023-05-21T10:49:01;99699.88;;;23.37;40.06
50710;BME280;37033;49.994;21.992;2023-05-21T10:51:43;99697.45;;;23.39;40.35
50710;BME280;37033;49.994;21.992;2023-05-21T10:54:37;99688.63;;;23.43;40.12
50710;BME280;37033;49.994;21.992;2023-05-21T10:57:27;99685.67;;;23.43;40.56
50710;BME280;37033;49.994;21.992;2023-05-21T11:00:02;99690.63;;;23.48;40.88
50710;BME280;37033;49.994;21.992;2023-05-21T11:02:34;99689.23;;;23.50;40.87
50710;BME280;37033;49.994;21.992;2023-05-21T11:05:07;99684.19;;;23.55;41.18
50710;BME280;37033;49.994;21.992;2023-05-21T11:07:52;99682.27;;;23.71;41.05
50710;BME280;37033;49.994;21.992;2023-05-21T11:10:36;99680.00;;;23.78;41.26
50710;BME280;37033;49.994;21.992;2023-05-21T11:13:09;99678.08;;;23.88;40.67
50710;BME280;37033;49.994;21.992;2023-05-21T11:16:03;99678.20;;;23.87;40.39
50710;BME280;37033;49.994;21.992;2023-05-21T11:19:00;99675.95;;;23.84;40.63
50710;BME280;37033;49.994;21.992;2023-05-21T11:21:34;99668.86;;;23.89;40.91
50710;BME280;37033;49.994;21.992;2023-05-21T11:24:06;99668.20;;;24.03;40.75
50710;BME280;37033;49.994;21.992;2023-05-21T11:27:01;99670.66;;;24.07;40.23
50710;BME280;37033;49.994;21.992;2023-05-21T11:29:39;99665.89;;;24.06;39.89
50710;BME280;37033;49.994;21.992;2023-05-21T11:32:11;99660.42;;;24.01;40.11
50710;BME280;37033;49.994;21.992;2023-05-21T11:34:45;99660.33;;;24.10;40.81
50710;BME280;37033;49.994;21.992;2023-05-21T11:37:30;99661.46;;;24.26;40.40
50710;BME280;37033;49.994;21.992;2023-05-21T11:42:58;99655.84;;;24.38;40.79
50710;BME280;37033;49.994;21.992;2023-05-21T11:45:32;99654.24;;;24.47;39.50
50710;BME280;37033;49.994;21.992;2023-05-21T11:48:03;99650.29;;;24.49;39.89
50710;BME280;37033;49.994;21.992;2023-05-21T11:50:35;99645.41;;;24.45;39.83
50710;BME280;37033;49.994;21.992;2023-05-21T11:53:06;99647.70;;;24.44;40.40
50710;BME280;37033;49.994;21.992;2023-05-21T11:55:40;99645.84;;;24.47;40.11
50710;BME280;37033;49.994;21.992;2023-05-21T11:58:13;99643.55;;;24.45;39.13
50710;BME280;37033;49.994;21.992;2023-05-21T12:00:44;99642.17;;;24.36;38.82
50710;BME280;37033;49.994;21.992;2023-05-21T12:03:15;99636.58;;;24.41;38.78
50710;BME280;37033;49.994;21.992;2023-05-21T12:05:46;99637.63;;;24.48;38.91
50710;BME280;37033;49.994;21.992;2023-05-21T12:08:22;99635.15;;;24.51;38.43
50710;BME280;37033;49.994;21.992;2023-05-21T12:10:58;99639.19;;;24.72;38.17
50710;BME280;37033;49.994;21.992;2023-05-21T12:13:30;99640.41;;;24.85;38.24
50710;BME280;37033;49.994;21.992;2023-05-21T12:16:00;99641.39;;;24.88;37.36
50710;BME280;37033;49.994;21.992;2023-05-21T12:18:31;99638.90;;;24.87;37.29
50710;BME280;37033;49.994;21.992;2023-05-21T12:21:02;99642.16;;;24.89;36.27
50710;BME280;37033;49.994;21.992;2023-05-21T12:23:35;99638.08;;;24.87;36.53
50710;BME280;37033;49.994;21.992;2023-05-21T12:26:05;99638.80;;;24.94;36.18
50710;BME280;37033;49.994;21.992;2023-05-21T12:28:37;99637.41;;;24.93;35.31
50710;BME280;37033;49.994;21.992;2023-05-21T12:31:15;99637.98;;;24.90;35.05
50710;BME280;37033;49.994;21.992;2023-05-21T12:33:47;99639.46;;;24.93;35.99
50710;BME280;37033;49.994;21.992;2023-05-21T12:36:27;99636.86;;;24.97;36.62
50710;BME280;37033;49.994;21.992;2023-05-21T12:38:59;99626.74;;;25.04;36.01
50710;BME280;37033;49.994;21.992;2023-05-21T12:41:29;99631.10;;;25.10;35.33
50710;BME280;37033;49.994;21.992;2023-05-21T12:44:00;99627.95;;;25.11;35.20
50710;BME280;37033;49.994;21.992;2023-05-21T12:46:33;99622.66;;;25.11;35.88
50710;BME280;37033;49.994;21.992;2023-05-21T12:49:04;99620.88;;;25.23;35.45
50710;BME280;37033;49.994;21.992;2023-05-21T12:51:40;99615.42;;;25.27;35.23
50710;BME280;37033;49.994;21.992;2023-05-21T12:54:13;99617.83;;;25.28;35.02
50710;BME280;37033;49.994;21.992;2023-05-21T12:56:47;99618.05;;;25.30;35.19
50710;BME280;37033;49.994;21.992;2023-05-21T12:59:17;99620.78;;;25.34;34.96
50710;BME280;37033;49.994;21.992;2023-05-21T13:01:48;99618.33;;;25.34;34.91
50710;BME280;37033;49.994;21.992;2023-05-21T13:04:21;99616.52;;;25.44;35.41
50710;BME280;37033;49.994;21.992;2023-05-21T13:06:52;99621.25;;;25.58;34.67
50710;BME280;37033;49.994;21.992;2023-05-21T13:09:22;99622.50;;;25.57;33.54
50710;BME280;37033;49.994;21.992;2023-05-21T13:11:53;99621.12;;;25.51;34.53
50710;BME280;37033;49.994;21.992;2023-05-21T13:14:24;99615.84;;;25.59;33.69
50710;BME280;37033;49.994;21.992;2023-05-21T13:16:54;99617.52;;;25.64;33.51
50710;BME280;37033;49.994;21.992;2023-05-21T13:19:25;99616.15;;;25.66;33.04